Time;durP1;ratioP1;P1;durP2;ratioP2;P2;SDS_P1;SDS_P2;PMS_P1;PMS_P2;Temp;Humidity;BMP_temperature;BMP_pressure;BME280_temperature;BME280_humidity;BME280_pressure;Samples;Min_cycle;Max_cycle;Signal;HPM_P1;HPM_P2
2023/03/01 00:01:15;;;;;;;21.67;10.32;;;-0.30;99.90;;;;;;5046440;28;20035;-70
2023/03/01 00:03:42;;;;;;;18.40;10.20;;;-0.40;99.90;;;;;;5042334;28;20326;-71
2023/03/01 00:06:07;;;;;;;23.63;10.98;;;-0.40;99.90;;;;;;5048181;28;20029;-70
2023/03/01 00:08:34;;;;;;;22.40;11.13;;;-0.40;99.90;;;;;;5053725;28;20462;-71
2023/03/01 00:11:11;;;;;;;21.38;10.68;;;-0.40;99.90;;;;;;5051526;28;20037;-62
2023/03/01 00:13:37;;;;;;;23.48;11.35;;;-0.40;99.90;;;;;;5048903;28;20029;-71
2023/03/01 00:16:05;;;;;;;21.20;11.05;;;-0.40;99.90;;;;;;5053515;28;20029;-71
2023/03/01 00:18:31;;;;;;;21.10;10.25;;;-0.40;99.90;;;;;;5055948;28;20029;-71
2023/03/01 00:20:57;;;;;;;22.80;11.20;;;-0.40;99.90;;;;;;5050870;28;20157;-71
2023/03/01 00:23:23;;;;;;;22.07;11.67;;;-0.40;99.90;;;;;;5055448;28;20104;-72
2023/03/01 00:25:49;;;;;;;19.10;8.57;;;-0.40;99.90;;;;;;5055517;28;20404;-71
2023/03/01 00:28:16;;;;;;;21.67;10.93;;;-0.50;99.90;;;;;;5053187;28;20079;-71
2023/03/01 00:30:41;;;;;;;25.37;11.30;;;-0.60;99.90;;;;;;5060512;28;20035;-71
2023/03/01 00:33:07;;;;;;;16.73;8.17;;;-0.60;99.90;;;;;;5058945;28;20344;-71
2023/03/01 00:35:34;;;;;;;19.80;10.73;;;-0.70;99.90;;;;;;5064839;28;20020;-71
2023/03/01 00:38:00;;;;;;;21.02;11.05;;;-0.70;99.90;;;;;;5056530;28;20140;-71
2023/03/01 00:40:31;;;;;;;18.10;9.10;;;-0.80;99.90;;;;;;5056486;28;20036;-71
2023/03/01 00:42:57;;;;;;;23.35;11.40;;;-0.80;99.90;;;;;;5058508;28;20033;-71
2023/03/01 00:45:23;;;;;;;22.17;11.43;;;-0.80;99.90;;;;;;5056431;28;20033;-71
2023/03/01 00:47:50;;;;;;;24.40;11.03;;;-0.90;99.90;;;;;;5058429;28;20029;-71
2023/03/01 00:50:16;;;;;;;23.40;10.57;;;-0.90;99.90;;;;;;5059430;28;20107;-71
2023/03/01 00:52:42;;;;;;;21.75;10.70;;;-0.90;99.90;;;;;;5059260;28;20331;-71
2023/03/01 00:55:08;;;;;;;20.70;10.73;;;-1.00;99.90;;;;;;5049898;28;20033;-71
2023/03/01 00:57:34;;;;;;;27.07;9.60;;;-1.10;99.90;;;;;;5058000;28;20029;-71
2023/03/01 00:59:59;;;;;;;18.52;8.90;;;-1.10;99.90;;;;;;5058272;28;20028;-72
2023/03/01 01:02:25;;;;;;;19.90;10.13;;;-1.20;99.90;;;;;;5057443;28;20378;-71
2023/03/01 01:04:51;;;;;;;22.37;11.43;;;-1.30;99.90;;;;;;5056594;28;20033;-71
2023/03/01 01:07:17;;;;;;;19.13;10.40;;;-1.30;99.90;;;;;;5040155;28;20384;-72
2023/03/01 01:09:43;;;;;;;25.17;11.90;;;-1.30;99.90;;;;;;5055786;28;20037;-71
2023/03/01 01:12:09;;;;;;;21.50;10.17;;;-1.40;99.90;;;;;;5054879;28;20439;-71
2023/03/01 01:14:35;;;;;;;18.43;10.73;;;-1.40;99.90;;;;;;5056783;28;20050;-71
2023/03/01 01:17:01;;;;;;;25.03;11.13;;;-1.40;99.90;;;;;;5057203;28;20277;-71
2023/03/01 01:19:26;;;;;;;18.60;10.53;;;-1.50;99.90;;;;;;5055309;28;20335;-71
2023/03/01 01:21:52;;;;;;;15.20;9.47;;;-1.50;99.90;;;;;;5056549;28;20073;-71
2023/03/01 01:24:19;;;;;;;19.90;10.68;;;-1.60;99.90;;;;;;5060586;28;20445;-71
2023/03/01 01:26:46;;;;;;;23.15;11.40;;;-1.60;99.90;;;;;;5064556;28;20047;-70
2023/03/01 01:29:12;;;;;;;21.20;11.23;;;-1.60;99.90;;;;;;5057877;28;20138;-71
2023/03/01 01:31:40;;;;;;;21.20;10.48;;;-1.70;99.90;;;;;;5055035;28;20036;-71
2023/03/01 01:34:07;;;;;;;21.33;11.50;;;-1.70;99.90;;;;;;5058795;28;20051;-71
2023/03/01 01:36:34;;;;;;;21.55;11.07;;;-1.70;99.90;;;;;;5055674;28;20033;-71
2023/03/01 01:39:00;;;;;;;28.30;11.10;;;-1.70;99.90;;;;;;5057689;28;20033;-71
2023/03/01 01:41:27;;;;;;;17.25;8.75;;;-1.70;99.90;;;;;;5054254;28;20039;-61
2023/03/01 01:44:14;;;;;;;23.10;11.55;;;-1.70;99.90;;;;;;5057807;28;20037;-71
2023/03/01 01:46:53;;;;;;;23.08;12.13;;;-1.70;99.90;;;;;;5054441;28;20036;-71
2023/03/01 01:49:32;;;;;;;31.98;12.65;;;-1.60;99.90;;;;;;5043957;28;20037;-71
2023/03/01 01:52:13;;;;;;;21.60;11.73;;;-1.60;99.90;;;;;;5053958;28;20059;-71
2023/03/01 01:54:57;;;;;;;27.05;11.65;;;-1.60;99.90;;;;;;5052215;28;20111;-71
2023/03/01 01:57:32;;;;;;;21.58;11.45;;;-1.70;99.90;;;;;;5052182;28;20029;-71
2023/03/01 02:00:02;;;;;;;24.33;11.77;;;-1.80;99.90;;;;;;5039188;28;20056;-71
2023/03/01 02:02:28;;;;;;;25.58;12.23;;;-1.80;99.90;;;;;;5049067;28;20037;-71
2023/03/01 02:05:10;;;;;;;24.03;11.73;;;-1.90;99.90;;;;;;5055163;28;20087;-71
2023/03/01 02:07:38;;;;;;;19.67;9.60;;;-1.90;99.90;;;;;;5052271;28;20028;-72
2023/03/01 02:10:04;;;;;;;15.80;8.98;;;-2.00;99.90;;;;;;5056667;28;20051;-72
2023/03/01 02:12:30;;;;;;;12.73;5.82;;;-2.10;99.90;;;;;;5055375;28;20111;-71
2023/03/01 02:14:56;;;;;;;12.27;7.38;;;-2.20;99.90;;;;;;5055580;28;20634;-71
2023/03/01 02:17:22;;;;;;;11.07;6.90;;;-2.20;99.90;;;;;;5055112;28;20025;-71
2023/03/01 02:20:11;;;;;;;14.68;7.95;;;-2.20;99.90;;;;;;5054518;28;20028;-61
2023/03/01 02:22:38;;;;;;;15.63;8.57;;;-2.30;99.90;;;;;;5056414;28;20051;-71
2023/03/01 02:25:19;;;;;;;16.23;9.00;;;-2.30;99.90;;;;;;5042027;28;20033;-61
2023/03/01 02:27:54;;;;;;;16.35;7.80;;;-2.30;99.90;;;;;;5054048;28;20043;-67
2023/03/01 02:30:22;;;;;;;17.90;9.70;;;-2.30;99.90;;;;;;5053054;28;20021;-72
2023/03/01 02:32:48;;;;;;;21.23;10.70;;;-2.30;99.90;;;;;;5050603;28;20689;-71
2023/03/01 02:35:17;;;;;;;57.42;12.43;;;-2.30;99.90;;;;;;5048399;28;20017;-71
2023/03/01 02:37:44;;;;;;;19.33;10.30;;;-2.30;99.90;;;;;;5018662;28;20045;-72
2023/03/01 02:40:17;;;;;;;19.38;9.55;;;-2.30;99.90;;;;;;5048387;28;20025;-72
2023/03/01 02:42:57;;;;;;;20.02;10.45;;;-2.40;99.90;;;;;;5054006;28;20035;-71
2023/03/01 02:45:23;;;;;;;23.27;9.73;;;-2.40;99.90;;;;;;5036992;28;20327;-72
2023/03/01 02:47:49;;;;;;;19.00;10.40;;;-2.40;99.90;;;;;;5046158;28;20346;-72
2023/03/01 02:50:30;;;;;;;22.67;10.82;;;-2.40;99.90;;;;;;5048815;28;20033;-72
2023/03/01 02:53:12;;;;;;;21.15;10.18;;;-2.40;99.90;;;;;;5050447;28;20032;-72
2023/03/01 02:55:38;;;;;;;22.75;10.57;;;-2.40;99.90;;;;;;5052465;28;20323;-71
2023/03/01 02:58:04;;;;;;;21.27;10.40;;;-2.40;99.90;;;;;;5053353;28;20407;-71
2023/03/01 03:00:39;;;;;;;19.00;10.17;;;-2.40;99.90;;;;;;5054737;28;20108;-71
2023/03/01 03:03:06;;;;;;;24.75;10.77;;;-2.50;99.90;;;;;;5054144;28;20269;-71
2023/03/01 03:05:33;;;;;;;23.63;11.15;;;-2.40;99.90;;;;;;5054543;28;20024;-71
2023/03/01 03:08:01;;;;;;;20.40;10.85;;;-2.30;99.90;;;;;;5049177;28;20033;-71
2023/03/01 03:10:32;;;;;;;21.38;10.50;;;-2.30;99.90;;;;;;5037151;28;20029;-71
2023/03/01 03:13:01;;;;;;;21.35;10.43;;;-2.40;99.90;;;;;;5053409;28;20029;-61
2023/03/01 03:15:28;;;;;;;19.13;10.23;;;-2.50;99.90;;;;;;5052305;28;20021;-71
2023/03/01 03:17:55;;;;;;;24.98;11.18;;;-2.50;99.90;;;;;;5054233;28;20070;-71
2023/03/01 03:20:25;;;;;;;30.15;11.98;;;-2.60;99.90;;;;;;5053549;28;20025;-71
2023/03/01 03:22:54;;;;;;;21.00;10.02;;;-2.60;99.90;;;;;;5054692;28;20040;-72
2023/03/01 03:25:20;;;;;;;21.13;9.75;;;-2.60;99.90;;;;;;5053433;28;20440;-71
2023/03/01 03:27:48;;;;;;;29.38;9.90;;;-2.60;99.90;;;;;;5054215;28;20055;-71
2023/03/01 03:30:17;;;;;;;22.75;10.45;;;-2.70;99.90;;;;;;5051293;28;20049;-71
2023/03/01 03:32:52;;;;;;;22.02;10.10;;;-2.70;99.90;;;;;;5054357;28;20106;-71
2023/03/01 03:35:41;;;;;;;23.42;10.15;;;-2.70;99.90;;;;;;5037409;28;20103;-72
2023/03/01 03:38:15;;;;;;;22.00;10.32;;;-2.70;99.90;;;;;;5035906;28;20040;-71
2023/03/01 03:40:49;;;;;;;20.70;10.02;;;-2.70;99.90;;;;;;5049604;28;20029;-61
2023/03/01 03:43:20;;;;;;;20.58;9.55;;;-2.70;99.90;;;;;;5053314;28;20339;-61
2023/03/01 03:45:46;;;;;;;21.88;9.45;;;-2.80;99.90;;;;;;5049847;28;20096;-61
2023/03/01 03:48:12;;;;;;;19.77;10.07;;;-2.80;99.90;;;;;;5053071;28;20025;-66
2023/03/01 03:50:39;;;;;;;19.17;9.73;;;-2.80;99.90;;;;;;5053359;28;20052;-61
2023/03/01 03:53:09;;;;;;;;;;;-2.90;99.90;;;;;;5057858;28;20063;-72
2023/03/01 03:55:38;;;;;;;19.88;8.38;;;-2.90;99.90;;;;;;5057428;28;20218;-61
2023/03/01 03:58:09;;;;;;;22.45;9.50;;;-2.90;99.90;;;;;;5057597;28;20017;-61
2023/03/01 04:00:42;;;;;;;18.33;9.75;;;-2.90;99.90;;;;;;5057917;28;20071;-61
2023/03/01 04:03:08;;;;;;;17.90;8.75;;;-2.90;99.90;;;;;;5051934;28;20029;-70
2023/03/01 04:05:35;;;;;;;17.15;8.35;;;-2.90;99.90;;;;;;5040015;28;20423;-61
2023/03/01 04:08:01;;;;;;;21.58;10.20;;;-3.00;99.90;;;;;;5056818;28;20041;-71
2023/03/01 04:10:29;;;;;;;18.70;8.90;;;-3.00;99.90;;;;;;5057736;28;20319;-71
2023/03/01 04:12:58;;;;;;;26.95;9.82;;;-3.00;99.90;;;;;;5053202;28;20430;-71
2023/03/01 04:15:25;;;;;;;23.13;9.80;;;-3.00;99.90;;;;;;5057326;28;20111;-71
2023/03/01 04:17:53;;;;;;;20.15;10.43;;;-3.00;99.90;;;;;;5057165;28;20040;-71
2023/03/01 04:20:24;;;;;;;18.70;10.02;;;-3.00;99.90;;;;;;5057638;28;20031;-72
2023/03/01 04:23:12;;;;;;;22.73;11.50;;;-3.00;99.90;;;;;;5051933;28;20082;-61
2023/03/01 04:25:40;;;;;;;26.92;10.80;;;-3.00;99.90;;;;;;5039121;28;20076;-61
2023/03/01 04:28:07;;;;;;;23.65;10.77;;;-2.90;99.90;;;;;;5054465;28;20036;-72
2023/03/01 04:30:35;;;;;;;18.45;10.07;;;-2.90;99.90;;;;;;5057318;28;20061;-62
2023/03/01 04:33:03;;;;;;;18.95;9.05;;;-2.80;99.90;;;;;;5050865;28;20120;-61
2023/03/01 04:35:30;;;;;;;18.13;7.93;;;-2.60;99.90;;;;;;5056244;28;20079;-71
2023/03/01 04:37:55;;;;;;;17.60;9.18;;;-2.60;99.90;;;;;;5057159;28;20139;-72
2023/03/01 04:40:21;;;;;;;15.73;7.93;;;-2.60;99.90;;;;;;5056682;28;20028;-71
2023/03/01 04:42:47;;;;;;;12.43;7.47;;;-2.70;99.90;;;;;;5056325;28;20403;-61
2023/03/01 04:45:13;;;;;;;24.67;6.90;;;-2.70;99.90;;;;;;5061120;28;20392;-72
2023/03/01 04:47:44;;;;;;;35.50;8.60;;;-2.70;99.90;;;;;;5054383;28;20116;-61
2023/03/01 04:50:11;;;;;;;18.35;7.00;;;-2.70;99.90;;;;;;5054444;28;20270;-71
2023/03/01 04:52:37;;;;;;;17.73;7.97;;;-2.80;99.90;;;;;;5052143;28;20025;-72
2023/03/01 04:55:03;;;;;;;14.25;7.80;;;-2.70;99.90;;;;;;5049928;28;20159;-62
2023/03/01 04:57:30;;;;;;;20.58;8.15;;;-2.70;99.90;;;;;;5056169;28;20029;-61
2023/03/01 04:59:56;;;;;;;19.40;7.80;;;-2.80;99.90;;;;;;5056890;28;20032;-71
2023/03/01 05:02:21;;;;;;;10.70;5.80;;;-2.70;99.90;;;;;;5055546;28;20319;-72
2023/03/01 05:04:47;;;;;;;16.27;8.30;;;-2.70;99.90;;;;;;5054278;28;20040;-61
2023/03/01 05:07:19;;;;;;;11.23;5.77;;;-2.70;99.90;;;;;;5038992;28;20448;-71
2023/03/01 05:09:46;;;;;;;19.02;7.65;;;-2.70;99.90;;;;;;5053576;28;20120;-72
2023/03/01 05:12:12;;;;;;;18.83;8.73;;;-2.80;99.90;;;;;;5056035;28;20036;-73
2023/03/01 05:14:38;;;;;;;19.50;9.77;;;-3.00;99.90;;;;;;5056074;28;20370;-61
2023/03/01 05:17:04;;;;;;;62.25;15.32;;;-3.10;99.90;;;;;;5048938;28;20033;-61
2023/03/01 05:19:31;;;;;;;38.67;6.00;;;-3.30;99.90;;;;;;5055977;28;20032;-72
2023/03/01 05:22:03;;;;;;;46.97;5.55;;;-3.30;99.90;;;;;;5056491;28;20370;-71
2023/03/01 05:24:34;;;;;;;80.60;5.82;;;-3.20;99.90;;;;;;5054831;28;20386;-61
2023/03/01 05:27:01;;;;;;;16.23;5.13;;;-3.20;99.90;;;;;;5056158;28;20059;-72
2023/03/01 05:29:28;;;;;;;15.02;7.63;;;-3.20;99.90;;;;;;5055200;28;20096;-61
2023/03/01 05:32:00;;;;;;;14.77;7.55;;;-3.20;99.90;;;;;;5034120;28;20037;-61
2023/03/01 05:34:36;;;;;;;21.52;8.93;;;-3.20;99.90;;;;;;5056274;28;20035;-62
2023/03/01 05:37:02;;;;;;;21.27;10.30;;;-3.00;99.90;;;;;;5055713;28;20108;-61
2023/03/01 05:39:29;;;;;;;20.33;9.30;;;-2.90;99.90;;;;;;5052013;28;20135;-61
2023/03/01 05:41:57;;;;;;;19.33;9.18;;;-2.80;99.90;;;;;;5049381;28;20076;-62
2023/03/01 05:44:24;;;;;;;17.58;9.05;;;-2.80;99.90;;;;;;5055204;28;20138;-62
2023/03/01 05:46:50;;;;;;;16.95;7.45;;;-2.80;99.90;;;;;;5056018;28;20037;-61
2023/03/01 05:49:16;;;;;;;16.13;8.50;;;-3.00;99.90;;;;;;5055238;28;20032;-62
2023/03/01 05:51:43;;;;;;;11.63;6.80;;;-3.10;99.90;;;;;;5054941;28;20036;-61
2023/03/01 05:54:09;;;;;;;14.02;7.20;;;-3.10;99.90;;;;;;5051965;28;20450;-72
2023/03/01 05:56:36;;;;;;;12.85;6.43;;;-3.10;99.90;;;;;;5046805;28;20358;-72
2023/03/01 05:59:04;;;;;;;17.63;8.15;;;-3.20;99.90;;;;;;5048647;28;20667;-72
2023/03/01 06:01:31;;;;;;;14.82;7.90;;;-3.20;99.90;;;;;;5054705;28;20040;-61
2023/03/01 06:03:57;;;;;;;15.73;8.70;;;-3.30;99.90;;;;;;5055826;28;20086;-61
2023/03/01 06:06:23;;;;;;;15.50;7.67;;;-3.40;99.90;;;;;;5053410;28;20037;-62
2023/03/01 06:08:50;;;;;;;14.05;6.70;;;-3.50;99.90;;;;;;5055673;28;20028;-72
2023/03/01 06:11:15;;;;;;;8.23;5.20;;;-3.50;99.90;;;;;;5053664;28;20054;-62
2023/03/01 06:13:45;;;;;;;13.90;7.03;;;-3.50;99.90;;;;;;5055393;28;20116;-61
2023/03/01 06:16:11;;;;;;;13.73;7.22;;;-3.50;99.90;;;;;;5056344;28;20434;-71
2023/03/01 06:18:37;;;;;;;13.35;6.32;;;-3.50;99.90;;;;;;5051397;28;20107;-61
2023/03/01 06:21:04;;;;;;;13.45;6.82;;;-3.50;99.90;;;;;;5044159;28;20505;-61
2023/03/01 06:23:29;;;;;;;16.65;8.07;;;-3.50;99.90;;;;;;5051075;28;20148;-71
2023/03/01 06:25:55;;;;;;;12.90;7.60;;;-3.50;99.90;;;;;;5049490;28;20112;-61
2023/03/01 06:28:21;;;;;;;22.17;8.27;;;-3.50;99.90;;;;;;5050416;28;20040;-61
2023/03/01 06:30:47;;;;;;;16.73;8.00;;;-3.50;99.90;;;;;;5046071;28;20034;-61
2023/03/01 06:33:12;;;;;;;23.67;10.60;;;-3.40;99.90;;;;;;5040717;28;20041;-66
2023/03/01 06:35:38;;;;;;;19.73;7.83;;;-3.20;99.90;;;;;;5048194;28;20112;-61
2023/03/01 06:38:05;;;;;;;14.00;6.40;;;-3.20;99.90;;;;;;5045096;28;20025;-62
2023/03/01 06:40:31;;;;;;;15.85;8.10;;;-3.20;99.90;;;;;;5048318;28;20067;-61
2023/03/01 06:42:58;;;;;;;19.95;9.23;;;-3.20;99.90;;;;;;5052839;28;20115;-61
2023/03/01 06:45:24;;;;;;;22.63;9.20;;;-3.20;99.90;;;;;;5046890;28;20101;-61
2023/03/01 06:47:50;;;;;;;18.63;8.85;;;-3.20;99.90;;;;;;5049460;28;20438;-71
2023/03/01 06:50:17;;;;;;;20.10;9.40;;;-3.10;99.90;;;;;;5048087;28;20036;-72
2023/03/01 06:52:44;;;;;;;;;;;-3.10;99.90;;;;;;5053659;28;20043;-61
2023/03/01 06:55:11;;;;;;;18.23;8.68;;;-2.90;99.90;;;;;;5050397;28;19978;-62
2023/03/01 06:57:37;;;;;;;21.90;8.75;;;-2.80;99.90;;;;;;5050273;28;20017;-61
2023/03/01 07:00:06;;;;;;;19.50;7.45;;;-2.80;99.90;;;;;;5053749;28;20134;-68
2023/03/01 07:02:32;;;;;;;21.00;10.00;;;-2.80;99.90;;;;;;5053664;28;20386;-61
2023/03/01 07:04:58;;;;;;;21.57;10.63;;;-2.60;99.90;;;;;;5048898;28;20132;-61
2023/03/01 07:07:24;;;;;;;21.43;10.47;;;-2.50;99.90;;;;;;5047982;28;20025;-72
2023/03/01 07:09:50;;;;;;;19.83;9.80;;;-2.30;99.90;;;;;;5052234;28;20415;-61
2023/03/01 07:12:15;;;;;;;20.50;10.52;;;-2.00;99.90;;;;;;5050358;28;20083;-71
2023/03/01 07:14:43;;;;;;;20.77;9.73;;;-1.80;99.90;;;;;;5034586;28;20029;-61
2023/03/01 07:17:09;;;;;;;27.80;11.95;;;-1.50;99.90;;;;;;5050981;28;20044;-71
2023/03/01 07:19:35;;;;;;;25.17;11.80;;;-1.20;99.90;;;;;;5047109;28;20052;-61
2023/03/01 07:22:00;;;;;;;30.73;13.00;;;-1.00;99.90;;;;;;5050043;28;20025;-72
2023/03/01 07:24:26;;;;;;;21.67;8.67;;;-0.60;99.90;;;;;;5045877;28;20079;-72
2023/03/01 07:26:53;;;;;;;21.90;8.53;;;-0.20;99.90;;;;;;5047953;28;20043;-72
2023/03/01 07:29:19;;;;;;;28.17;12.05;;;0.00;99.90;;;;;;5048720;28;20040;-72
2023/03/01 07:31:45;;;;;;;28.30;12.27;;;0.40;99.90;;;;;;5045972;28;20088;-61
2023/03/01 07:34:11;;;;;;;29.58;13.48;;;1.00;99.90;;;;;;5052043;28;20025;-71
2023/03/01 07:36:37;;;;;;;24.77;13.00;;;2.20;99.90;;;;;;5049829;28;20032;-61
2023/03/01 07:39:03;;;;;;;17.42;9.48;;;3.00;99.90;;;;;;5053277;28;20037;-61
2023/03/01 07:41:29;;;;;;;11.20;6.60;;;3.80;99.90;;;;;;5050233;28;20415;-61
2023/03/01 07:43:55;;;;;;;12.32;7.70;;;4.30;99.90;;;;;;5043249;28;20096;-61
2023/03/01 07:46:21;;;;;;;16.23;8.33;;;4.70;99.90;;;;;;5043073;28;20109;-61
2023/03/01 07:48:47;;;;;;;11.07;7.10;;;4.70;99.90;;;;;;5049098;28;20407;-61
2023/03/01 07:51:13;;;;;;;15.00;6.97;;;5.00;99.90;;;;;;5048667;28;20037;-71
2023/03/01 07:53:39;;;;;;;13.27;6.68;;;5.10;99.90;;;;;;5045158;28;20044;-71
2023/03/01 07:56:11;;;;;;;11.40;6.47;;;5.60;99.90;;;;;;5045118;28;20416;-72
2023/03/01 07:58:42;;;;;;;13.50;6.30;;;5.90;99.90;;;;;;5030404;28;20505;-71
2023/03/01 08:01:10;;;;;;;14.90;6.70;;;6.20;99.90;;;;;;5050094;28;20040;-66
2023/03/01 08:03:37;;;;;;;10.07;5.72;;;6.30;99.90;;;;;;5052285;28;20029;-71
2023/03/01 08:06:05;;;;;;;13.88;7.15;;;6.00;99.90;;;;;;5049182;28;20078;-71
2023/03/01 08:08:32;;;;;;;41.75;9.18;;;5.30;99.90;;;;;;5054052;28;20426;-71
2023/03/01 08:10:59;;;;;;;77.00;14.05;;;4.40;99.90;;;;;;5050292;28;20037;-71
2023/03/01 08:13:26;;;;;;;129.55;16.42;;;3.40;99.90;;;;;;5057398;28;20043;-71
2023/03/01 08:15:53;;;;;;;391.85;26.15;;;2.70;99.90;;;;;;5048834;28;20354;-71
2023/03/01 08:18:19;;;;;;;61.58;12.57;;;2.10;99.90;;;;;;5056111;28;20029;-72
2023/03/01 08:20:45;;;;;;;40.50;13.95;;;1.70;99.90;;;;;;5052528;28;20032;-71
2023/03/01 08:23:11;;;;;;;31.50;12.87;;;1.60;99.90;;;;;;5047137;28;20037;-71
2023/03/01 08:25:37;;;;;;;30.13;9.50;;;1.50;99.90;;;;;;5051570;28;20033;-61
2023/03/01 08:28:04;;;;;;;256.98;19.73;;;1.30;99.90;;;;;;5052011;28;20434;-60
2023/03/01 08:30:29;;;;;;;261.05;21.40;;;1.30;99.90;;;;;;5049879;28;20052;-71
2023/03/01 08:32:55;;;;;;;42.20;14.33;;;1.30;99.90;;;;;;5052588;28;20093;-61
2023/03/01 08:35:21;;;;;;;244.17;20.20;;;1.30;99.90;;;;;;5059022;28;20021;-61
2023/03/01 08:37:47;;;;;;;64.40;15.07;;;1.40;99.90;;;;;;5049817;28;20029;-71
2023/03/01 08:40:13;;;;;;;107.13;16.57;;;1.50;99.90;;;;;;5053772;28;20029;-63
2023/03/01 08:42:42;;;;;;;35.25;14.10;;;1.50;99.90;;;;;;5051838;28;20760;-61
2023/03/01 08:45:10;;;;;;;50.05;15.88;;;1.60;99.90;;;;;;5053975;28;20379;-71
2023/03/01 08:47:36;;;;;;;89.93;17.27;;;1.80;99.90;;;;;;5058309;28;20028;-61
2023/03/01 08:50:02;;;;;;;48.43;17.90;;;2.00;99.90;;;;;;5053977;28;20116;-61
2023/03/01 08:52:29;;;;;;;93.97;18.55;;;2.20;99.90;;;;;;5050471;28;20282;-71
2023/03/01 08:54:55;;;;;;;;;;;2.30;99.90;;;;;;5057998;28;20041;-69
2023/03/01 08:57:21;;;;;;;33.42;15.13;;;2.70;99.90;;;;;;5059809;28;19916;-71
2023/03/01 08:59:47;;;;;;;32.97;16.50;;;3.30;99.90;;;;;;5037587;28;20032;-62
2023/03/01 09:02:16;;;;;;;35.13;15.97;;;3.80;99.90;;;;;;5049724;28;20060;-71
2023/03/01 09:04:43;;;;;;;36.72;16.42;;;4.60;99.90;;;;;;5054361;28;20324;-61
2023/03/01 09:07:09;;;;;;;32.38;15.00;;;5.50;99.90;;;;;;5055854;28;20438;-71
2023/03/01 09:09:35;;;;;;;33.00;17.20;;;5.90;99.90;;;;;;5051175;28;20024;-61
2023/03/01 09:12:01;;;;;;;34.13;15.68;;;6.50;99.90;;;;;;5054346;28;20365;-71
2023/03/01 09:14:27;;;;;;;30.83;15.43;;;7.00;99.90;;;;;;5049188;28;20033;-71
2023/03/01 09:16:53;;;;;;;27.87;14.63;;;7.60;99.90;;;;;;5045721;28;20257;-71
2023/03/01 09:19:18;;;;;;;20.27;10.80;;;8.30;99.90;;;;;;5053734;28;20483;-71
2023/03/01 09:21:54;;;;;;;20.43;10.10;;;9.10;99.90;;;;;;5042565;28;20320;-62
2023/03/01 09:24:21;;;;;;;24.20;12.85;;;9.10;99.90;;;;;;5046391;28;20134;-71
2023/03/01 09:26:47;;;;;;;22.92;11.98;;;9.50;99.90;;;;;;5032604;28;20391;-72
2023/03/01 09:29:14;;;;;;;30.60;13.17;;;8.40;99.90;;;;;;5062908;28;20052;-61
2023/03/01 09:31:40;;;;;;;26.23;11.38;;;7.70;99.90;;;;;;5060562;28;20322;-71
2023/03/01 09:34:06;;;;;;;21.40;10.23;;;7.40;99.90;;;;;;5048072;28;20038;-71
2023/03/01 09:36:33;;;;;;;21.50;10.65;;;7.20;99.90;;;;;;5048986;28;20106;-71
2023/03/01 09:38:59;;;;;;;17.75;8.70;;;7.00;99.90;;;;;;5059909;28;20100;-61
2023/03/01 09:41:34;;;;;;;15.02;7.28;;;7.10;99.90;;;;;;5062472;28;20109;-71
2023/03/01 09:44:11;;;;;;;17.00;6.88;;;7.10;99.90;;;;;;5055280;28;20029;-71
2023/03/01 09:46:44;;;;;;;10.40;5.47;;;6.80;99.90;;;;;;5051291;28;20029;-61
2023/03/01 09:49:18;;;;;;;14.90;8.32;;;6.50;99.90;;;;;;5049958;28;20028;-71
2023/03/01 09:52:08;;;;;;;16.23;7.50;;;6.60;99.90;;;;;;5019980;28;20041;-72
2023/03/01 09:54:34;;;;;;;16.08;8.20;;;6.70;99.90;;;;;;5034110;28;20041;-61
2023/03/01 09:57:27;;;;;;;18.17;9.57;;;6.70;99.90;;;;;;5038331;28;20029;-61
2023/03/01 09:59:59;;;;;;;23.92;10.40;;;6.80;99.90;;;;;;5036742;28;20112;-62
2023/03/01 10:02:46;;;;;;;19.00;9.30;;;6.90;99.90;;;;;;5051093;28;20025;-62
2023/03/01 10:05:49;;;;;;;27.85;12.18;;;6.70;99.90;;;;;;5044507;28;20025;-71
2023/03/01 10:08:36;;;;;;;26.42;12.48;;;6.70;99.90;;;;;;5054592;28;20104;-62
2023/03/01 10:11:03;;;;;;;22.50;11.32;;;6.70;99.90;;;;;;5053989;28;20021;-71
2023/03/01 10:13:53;;;;;;;28.98;13.52;;;6.50;99.90;;;;;;5033477;28;20510;-61
2023/03/01 10:16:34;;;;;;;27.58;13.13;;;6.40;99.90;;;;;;5054318;28;20115;-71
2023/03/01 10:19:03;;;;;;;30.65;12.52;;;6.50;99.90;;;;;;5049658;28;20343;-61
2023/03/01 10:21:31;;;;;;;30.70;12.43;;;6.40;99.90;;;;;;5050897;28;20040;-74
2023/03/01 10:24:07;;;;;;;27.00;11.57;;;6.40;99.90;;;;;;5047581;28;20655;-67
2023/03/01 10:26:39;;;;;;;26.38;11.30;;;6.30;99.90;;;;;;5061052;28;20045;-61
2023/03/01 10:29:10;;;;;;;22.33;9.32;;;6.30;99.90;;;;;;5043042;28;20037;-62
2023/03/01 10:31:46;;;;;;;19.15;8.90;;;6.30;99.90;;;;;;5040356;28;20443;-62
2023/03/01 10:34:14;;;;;;;16.23;8.13;;;6.10;99.90;;;;;;5051269;28;20154;-72
2023/03/01 10:36:41;;;;;;;20.02;10.57;;;5.80;99.90;;;;;;5052335;28;20036;-61
2023/03/01 10:39:20;;;;;;;17.75;8.05;;;5.90;99.90;;;;;;5054227;28;20078;-61
2023/03/01 10:41:57;;;;;;;19.00;9.93;;;5.90;99.90;;;;;;5049834;28;20037;-61
2023/03/01 10:44:40;;;;;;;16.55;7.70;;;5.80;99.90;;;;;;5058093;28;20056;-62
2023/03/01 10:47:33;;;;;;;21.00;9.25;;;5.80;99.90;;;;;;5052931;28;20032;-62
2023/03/01 10:50:05;;;;;;;16.63;8.40;;;5.90;99.90;;;;;;5033978;28;20048;-61
2023/03/01 10:52:36;;;;;;;12.20;7.10;;;5.80;99.90;;;;;;5050695;28;20044;-62
2023/03/01 10:55:28;;;;;;;15.35;6.93;;;5.60;99.90;;;;;;5056109;28;20307;-62
2023/03/01 10:58:20;;;;;;;11.20;5.57;;;5.60;99.90;;;;;;5052629;28;20021;-62
2023/03/01 11:00:58;;;;;;;12.63;5.70;;;5.70;99.90;;;;;;5043748;28;20116;-61
2023/03/01 11:03:38;;;;;;;11.90;5.35;;;5.70;99.90;;;;;;5055761;28;20055;-62
2023/03/01 11:06:12;;;;;;;7.10;3.20;;;5.70;99.90;;;;;;5037685;28;20446;-73
2023/03/01 11:08:41;;;;;;;12.23;6.20;;;5.80;99.90;;;;;;5045945;28;20037;-62
2023/03/01 11:11:18;;;;;;;13.13;6.28;;;5.80;99.90;;;;;;5052126;28;20029;-62
2023/03/01 11:14:00;;;;;;;11.20;4.78;;;5.70;99.90;;;;;;5032813;28;20083;-62
2023/03/01 11:16:29;;;;;;;9.75;4.75;;;5.80;99.90;;;;;;5045720;28;20026;-61
2023/03/01 11:19:04;;;;;;;5.00;3.40;;;5.80;99.90;;;;;;5049846;28;20131;-66
2023/03/01 11:21:34;;;;;;;8.48;4.22;;;5.80;99.90;;;;;;5046732;28;20115;-62
2023/03/01 11:24:01;;;;;;;12.90;4.43;;;5.80;99.90;;;;;;5046621;28;20033;-61
2023/03/01 11:26:28;;;;;;;;;;;5.90;99.90;;;;;;5046390;28;20353;-72
2023/03/01 11:28:58;;;;;;;7.72;3.92;;;5.90;99.90;;;;;;5049062;28;19919;-63
2023/03/01 11:31:25;;;;;;;11.20;4.05;;;5.90;99.90;;;;;;5058015;28;20037;-62
2023/03/01 11:34:22;;;;;;;10.85;4.85;;;6.00;99.90;;;;;;5055357;28;20055;-61
2023/03/01 11:37:02;;;;;;;5.60;3.25;;;6.10;99.90;;;;;;5026716;28;20048;-61
2023/03/01 11:39:46;;;;;;;8.80;4.38;;;6.10;99.90;;;;;;5042407;28;20433;-61
2023/03/01 11:42:24;;;;;;;9.68;4.28;;;6.20;99.90;;;;;;5050089;28;20029;-73
2023/03/01 11:44:54;;;;;;;7.32;4.10;;;6.30;99.90;;;;;;5053522;28;20091;-62
2023/03/01 11:47:32;;;;;;;10.50;5.32;;;6.40;99.90;;;;;;5054001;28;20117;-72
2023/03/01 11:50:00;;;;;;;4.65;2.42;;;6.50;99.90;;;;;;5055233;28;20043;-73
2023/03/01 11:52:57;;;;;;;7.22;3.28;;;6.30;99.90;;;;;;5055322;28;20035;-61
2023/03/01 11:55:33;;;;;;;9.25;4.55;;;6.30;99.90;;;;;;5044996;28;20034;-73
2023/03/01 11:58:05;;;;;;;;;;;6.40;99.90;;;;;;5049484;28;20029;-62
2023/03/01 12:01:08;;;;;;;7.57;4.53;;;6.40;99.90;;;;;;5053100;28;19919;-62
2023/03/01 12:03:55;;;;;;;6.30;3.47;;;6.30;99.90;;;;;;5032678;28;20039;-70
2023/03/01 12:06:50;;;;;;;12.27;6.70;;;6.30;99.90;;;;;;5068544;28;20021;-62
2023/03/01 12:09:51;;;;;;;9.27;4.70;;;6.40;99.90;;;;;;5048093;28;20036;-62
2023/03/01 12:12:30;;;;;;;6.70;3.38;;;6.50;99.90;;;;;;5056902;28;20116;-62
2023/03/01 12:15:05;;;;;;;10.35;4.88;;;6.70;99.90;;;;;;5064588;28;20047;-61
2023/03/01 12:18:02;;;;;;;10.57;4.03;;;6.90;99.90;;;;;;5041767;28;20029;-62
2023/03/01 12:21:09;;;;;;;7.88;3.72;;;7.00;99.90;;;;;;5052030;28;20198;-62
2023/03/01 12:24:00;;;;;;;7.75;4.28;;;6.90;99.90;;;;;;5048811;28;20145;-73
2023/03/01 12:26:35;;;;;;;9.60;4.18;;;6.90;99.90;;;;;;5058873;28;20037;-62
2023/03/01 12:29:13;;;;;;;8.65;4.00;;;6.80;99.90;;;;;;5052637;28;20104;-62
2023/03/01 12:31:58;;;;;;;5.85;3.20;;;6.70;99.90;;;;;;5062150;28;20033;-74
2023/03/01 12:34:49;;;;;;;5.30;3.25;;;6.80;99.90;;;;;;5040784;28;20115;-62
2023/03/01 12:37:32;;;;;;;9.60;4.25;;;6.80;99.90;;;;;;5050280;28;20361;-62
2023/03/01 12:40:30;;;;;;;10.63;4.70;;;6.80;99.90;;;;;;5041393;28;20448;-61
2023/03/01 12:43:07;;;;;;;8.63;3.35;;;6.90;99.90;;;;;;5058661;28;20048;-62
2023/03/01 12:45:47;;;;;;;7.07;3.55;;;7.00;99.90;;;;;;5058318;28;20090;-72
2023/03/01 12:48:28;;;;;;;8.10;4.03;;;6.90;99.90;;;;;;5055497;28;20115;-62
2023/03/01 12:50:59;;;;;;;8.02;3.10;;;6.90;99.90;;;;;;5051102;28;20082;-63
2023/03/01 12:53:42;;;;;;;7.03;3.50;;;6.80;99.90;;;;;;5054736;28;20048;-62
2023/03/01 12:56:17;;;;;;;5.43;2.80;;;6.80;99.90;;;;;;5051542;28;20320;-74